.
WxDataArchive / Data Records for 2016-02-28
2016-02-27 February 2016 2016-02-29

Data Records for Sunday, 28 February 2016

Time	Temp	Chill	HIndex	Humid	Dewpt	 Wind 	HiWind	WindDir	Rain 	Barom
-----	----	-----	------	-----	-----	------	------	-------	-----	-----
00:00	42.8	42.8	42.8	69	33.3	1	6	248	0.00	29.867 
00:05	42.8	42.8	42.8	69	33.3	0	2	270	0.00	29.867 
00:10	42.8	42.8	42.8	70	33.7	0	4	270	0.00	29.867 
00:15	42.8	42.8	42.8	69	33.3	0	3	270	0.00	29.861 
00:20	42.9	42.9	42.9	69	33.4	1	3	270	0.00	29.861 
00:25	43.1	43.1	43.1	69	33.6	1	3	270	0.00	29.861 
00:30	43.1	43.1	43.1	69	33.6	1	3	270	0.00	29.857 
00:35	43.1	43.1	43.1	69	33.6	1	3	248	0.00	29.857 
00:40	43.2	43.2	43.2	69	33.7	0	3	248	0.00	29.857 
00:45	43.1	43.1	43.1	69	33.6	0	3	248	0.00	29.847 
00:50	43.1	43.1	43.1	69	33.6	1	3	248	0.00	29.847 
00:55	43.1	43.1	43.1	69	33.6	0	4	248	0.00	29.847 
01:00	43.1	43.1	43.1	69	33.6	1	4	248	0.00	29.845 
01:05	43.1	43.1	43.1	68	33.3	0	3	248	0.00	29.845 
01:10	43.1	43.1	43.1	68	33.3	1	3	248	0.00	29.845 
01:15	42.9	42.9	42.9	69	33.4	1	3	248	0.00	29.840 
01:20	43.1	43.1	43.1	68	33.3	1	3	248	0.00	29.840 
01:25	43.1	43.1	43.1	68	33.3	0	3	248	0.00	29.840 
01:30	43.1	43.1	43.1	68	33.3	1	3	248	0.00	29.837 
01:35	43.1	43.1	43.1	68	33.3	1	3	248	0.00	29.837 
01:40	43.1	43.1	43.1	68	33.3	0	3	248	0.00	29.837 
01:45	43.2	43.2	43.2	67	33.0	1	4	248	0.00	29.835 
01:50	43.2	43.2	43.2	67	33.0	0	3	248	0.00	29.835 
01:55	43.2	43.2	43.2	67	33.0	0	2	248	0.00	29.835 
02:00	43.2	43.2	43.2	67	33.0	1	3	248	0.00	29.827 
02:05	43.2	43.2	43.2	67	33.0	1	3	248	0.00	29.827 
02:10	43.2	43.2	43.2	67	33.0	1	4	248	0.00	29.827 
02:15	43.2	43.2	43.2	67	33.0	1	4	248	0.00	29.822 
02:20	43.2	43.2	43.2	67	33.0	1	3	248	0.00	29.822 
02:25	43.2	43.2	43.2	67	33.0	1	3	225	0.00	29.822 
02:30	43.1	43.1	43.1	68	33.3	1	3	225	0.00	29.818 
02:35	43.1	43.1	43.1	68	33.3	0	3	225	0.00	29.818 
02:40	43.1	43.1	43.1	68	33.3	0	2	225	0.00	29.818 
02:45	42.9	42.9	42.9	68	33.1	0	3	225	0.00	29.812 
02:50	42.8	42.8	42.8	68	33.0	0	2	225	0.00	29.812 
02:55	42.8	42.8	42.8	68	33.0	0	2	225	0.00	29.812 
03:00	42.8	42.8	42.8	69	33.3	0	3	225	0.00	29.806 
03:05	42.8	42.8	42.8	69	33.3	0	2	225	0.00	29.806 
03:10	42.6	42.6	42.6	69	33.2	1	4	225	0.00	29.806 
03:15	42.6	42.6	42.6	69	33.2	0	3	248	0.00	29.795 
03:20	42.5	42.5	42.5	69	33.1	0	4	248	0.00	29.795 
03:25	42.3	42.3	42.3	69	32.9	1	3	248	0.00	29.795 
03:30	42.3	42.3	42.3	70	33.2	1	3	248	0.00	29.792 
03:35	42.3	42.3	42.3	70	33.2	0	3	248	0.00	29.792 
03:40	42.2	42.2	42.2	70	33.1	1	4	248	0.00	29.792 
03:45	42.2	42.2	42.2	70	33.1	0	3	270	0.00	29.790 
03:50	42.2	42.2	42.2	70	33.1	1	4	270	0.00	29.790 
03:55	42.2	42.2	42.2	70	33.1	1	3	270	0.00	29.790 
04:00	42.2	42.2	42.2	70	33.1	1	3	248	0.00	29.783 
04:05	42.2	42.2	42.2	71	33.5	1	4	248	0.00	29.783 
04:10	42.2	42.2	42.2	70	33.1	1	7	248	0.00	29.783 
04:15	42.2	42.2	42.2	70	33.1	0	2	248	0.00	29.778 
04:20	42.3	42.3	42.3	70	33.2	1	4	248	0.00	29.778 
04:25	42.3	42.3	42.3	70	33.2	1	3	248	0.00	29.778 
04:30	42.3	42.3	42.3	70	33.2	1	3	248	0.00	29.775 
04:35	42.3	42.3	42.3	70	33.2	1	3	248	0.00	29.775 
04:40	42.3	42.3	42.3	70	33.2	1	4	248	0.00	29.775 
04:45	42.5	42.5	42.5	70	33.4	1	3	248	0.00	29.769 
04:50	42.6	42.6	42.6	70	33.5	1	4	225	0.00	29.769 
04:55	42.6	42.6	42.6	70	33.5	0	3	225	0.00	29.769 
05:00	42.6	42.6	42.6	70	33.5	0	2	225	0.00	29.766 
05:05	42.8	42.8	42.8	69	33.3	1	3	270	0.00	29.766 
05:10	42.8	42.8	42.8	69	33.3	0	2	270	0.00	29.766 
05:15	42.8	42.8	42.8	69	33.3	0	2	270	0.00	29.763 
05:20	42.8	42.8	42.8	69	33.3	0	2	270	0.00	29.763 
05:25	42.9	42.9	42.9	69	33.4	1	4	270	0.00	29.763 
05:30	43.2	43.2	43.2	69	33.7	1	5	248	0.00	29.761 
05:35	43.3	43.3	43.3	69	33.8	1	3	248	0.00	29.761 
05:40	43.5	43.5	43.5	69	34.0	1	4	248	0.00	29.761 
05:45	43.3	43.3	43.3	69	33.8	0	3	248	0.00	29.761 
05:50	43.5	43.5	43.5	69	34.0	1	5	248	0.00	29.761 
05:55	43.6	43.6	43.6	69	34.1	1	3	248	0.00	29.761 
06:00	43.6	43.6	43.6	69	34.1	0	3	225	0.00	29.752 
06:05	43.8	43.8	43.8	69	34.3	1	7	270	0.00	29.752 
06:10	43.9	43.9	43.9	69	34.4	1	5	248	0.00	29.752 
06:15	43.9	43.9	43.9	69	34.4	1	4	248	0.00	29.752 
06:20	43.9	43.9	43.9	69	34.4	1	5	248	0.00	29.752 
06:25	43.9	43.9	43.9	69	34.4	1	5	248	0.00	29.752 
06:30	43.9	43.9	43.9	69	34.4	2	6	248	0.00	29.747 
06:35	43.9	43.9	43.9	69	34.4	1	4	248	0.00	29.747 
06:40	43.9	43.9	43.9	69	34.4	1	7	248	0.00	29.747 
06:45	43.9	43.9	43.9	69	34.4	1	5	248	0.00	29.745 
06:50	43.9	43.9	43.9	69	34.4	1	4	248	0.00	29.745 
06:55	43.8	43.8	43.8	69	34.3	1	4	248	0.00	29.745 
07:00	43.9	43.9	43.9	69	34.4	2	6	248	0.00	29.746 
07:05	43.9	43.9	43.9	69	34.4	1	6	248	0.00	29.746 
07:10	43.9	43.9	43.9	69	34.4	1	5	248	0.00	29.746 
07:15	43.9	43.9	43.9	69	34.4	2	5	248	0.00	29.745 
07:20	43.9	43.9	43.9	69	34.4	1	4	270	0.00	29.745 
07:25	43.8	43.8	43.8	70	34.7	1	3	270	0.00	29.745 
07:30	43.6	43.6	43.6	70	34.5	1	3	202	0.00	29.745 
07:35	43.8	43.8	43.8	71	35.0	1	5	270	0.00	29.745 
07:40	43.9	43.9	43.9	70	34.8	1	5	248	0.00	29.745 
07:45	44.1	44.1	44.1	70	35.0	1	4	248	0.00	29.744 
07:50	44.2	44.2	44.2	70	35.0	1	5	248	0.00	29.744 
07:55	44.3	44.3	44.3	70	35.1	2	5	248	0.00	29.744 
08:00	44.6	44.6	44.6	69	35.1	2	6	248	0.00	29.743 
08:05	44.8	44.8	44.8	69	35.3	1	4	248	0.00	29.743 
08:10	44.9	44.9	44.9	69	35.4	1	5	248	0.00	29.743 
08:15	45.1	45.1	45.1	69	35.5	1	5	248	0.00	29.743 
08:20	45.1	45.1	45.1	69	35.5	1	3	248	0.00	29.743 
08:25	45.2	45.2	45.2	69	35.6	1	3	248	0.00	29.743 
08:30	45.5	45.5	45.5	68	35.6	2	9	248	0.00	29.738 
08:35	45.8	45.8	45.8	68	35.8	2	7	248	0.00	29.738 
08:40	46.2	46.2	46.2	67	35.9	1	7	248	0.00	29.738 
08:45	46.5	46.5	46.5	66	35.8	2	7	248	0.00	29.734 
08:50	46.8	46.8	46.8	65	35.7	2	5	270	0.00	29.734 
08:55	47.3	47.3	47.3	65	36.1	2	5	248	0.00	29.734 
09:00	47.6	47.6	47.6	65	36.4	2	5	248	0.00	29.730 
09:05	48.0	48.0	48.0	63	36.0	3	9	248	0.00	29.730 
09:10	48.5	48.5	48.5	62	36.1	2	9	248	0.00	29.730 
09:15	48.9	48.9	48.9	62	36.5	2	6	225	0.00	29.730 
09:20	49.4	49.4	49.4	61	36.5	2	6	248	0.00	29.730 
09:25	49.8	49.8	49.8	60	36.5	3	12	248	0.00	29.730 
09:30	50.2	50.2	50.2	60	36.9	2	6	270	0.00	29.724 
09:35	50.7	50.7	50.7	59	36.9	2	5	248	0.00	29.724 
09:40	51.0	51.0	51.0	58	36.7	2	10	248	0.00	29.724 
09:45	51.4	51.4	51.4	58	37.1	2	6	248	0.00	29.712 
09:50	51.7	51.7	51.7	58	37.4	3	9	248	0.00	29.712 
09:55	52.0	52.0	52.0	58	37.7	2	7	248	0.00	29.712 
10:00	52.5	52.5	52.5	57	37.7	3	10	270	0.00	29.705 
10:05	52.8	52.8	52.8	56	37.5	3	9	248	0.00	29.705 
10:10	53.2	53.2	53.2	56	37.9	3	10	248	0.00	29.705 
10:15	53.5	53.5	53.5	55	37.7	2	6	248	0.00	29.695 
10:20	53.9	53.9	53.9	54	37.6	2	6	248	0.00	29.695 
10:25	54.2	54.2	54.2	54	37.9	3	9	248	0.00	29.695 
10:30	54.7	54.7	54.7	54	38.4	2	5	248	0.00	29.686 
10:35	55.0	55.0	55.0	53	38.2	3	7	248	0.00	29.686 
10:40	55.1	55.1	55.1	53	38.3	3	9	248	0.00	29.686 
10:45	55.3	55.3	55.3	54	38.9	3	11	248	0.00	29.680 
10:50	55.6	55.6	55.6	53	38.7	3	7	248	0.00	29.680 
10:55	55.7	55.7	55.7	53	38.8	4	12	270	0.00	29.680 
11:00	55.7	55.7	55.7	54	39.3	3	7	248	0.00	29.668 
11:05	56.0	56.0	56.0	54	39.6	4	9	248	0.00	29.668 
11:10	56.5	56.5	56.5	53	39.6	2	7	248	0.00	29.668 
11:15	56.6	56.6	56.6	53	39.7	3	7	248	0.00	29.660 
11:20	56.9	56.9	56.9	52	39.5	3	11	248	0.00	29.660 
11:25	56.7	56.7	56.7	53	39.8	4	10	248	0.00	29.660 
11:30	56.7	56.7	56.7	54	40.2	3	8	248	0.00	29.654 
11:35	57.2	57.2	57.2	54	40.7	2	7	248	0.00	29.654 
11:40	57.6	57.6	57.6	53	40.6	2	5	248	0.00	29.654 
11:45	57.6	57.6	57.6	52	40.1	4	10	248	0.00	29.643 
11:50	58.0	58.0	58.0	52	40.5	3	11	248	0.00	29.643 
11:55	58.0	58.0	58.0	52	40.5	3	9	248	0.00	29.643 
12:00	58.4	58.4	58.4	52	40.8	2	12	248	0.00	29.628 
12:05	58.4	58.4	58.4	52	40.8	3	12	270	0.00	29.628 
12:10	58.7	58.7	58.7	52	41.1	3	12	248	0.00	29.628 
12:15	59.2	59.2	59.2	51	41.1	3	10	248	0.00	29.624 
12:20	59.5	59.5	59.5	51	41.4	2	7	248	0.00	29.624 
12:25	59.8	59.8	59.8	51	41.6	4	9	248	0.00	29.624 
12:30	60.1	60.1	60.1	50	41.4	4	10	248	0.00	29.623 
12:35	60.2	60.2	60.2	50	41.5	3	11	248	0.00	29.623 
12:40	60.7	60.7	60.7	50	41.9	1	4	248	0.00	29.623 
12:45	61.2	61.2	61.2	48	41.3	3	10	248	0.00	29.618 
12:50	61.5	61.5	61.5	49	42.2	2	7	248	0.00	29.618 
12:55	62.0	62.0	62.0	47	41.5	2	7	248	0.00	29.618 
13:00	62.1	62.1	62.1	47	41.6	3	10	248	0.00	29.598 
13:05	62.4	62.4	62.4	48	42.4	3	9	248	0.00	29.598 
13:10	62.6	62.6	62.6	47	42.1	3	10	248	0.00	29.598 
13:15	62.9	62.9	62.9	47	42.4	2	5	248	0.00	29.582 
13:20	62.9	62.9	62.9	48	42.9	3	10	248	0.00	29.582 
13:25	63.1	63.1	63.1	47	42.5	4	14	248	0.00	29.582 
13:30	63.2	63.2	63.2	46	42.1	4	11	248	0.00	29.562 
13:35	63.5	63.5	63.5	46	42.3	3	10	270	0.00	29.562 
13:40	63.9	63.9	63.9	47	43.3	3	8	270	0.00	29.562 
13:45	64.0	64.0	64.0	46	42.8	4	10	248	0.00	29.547 
13:50	64.3	64.3	64.3	46	43.1	4	11	248	0.00	29.547 
13:55	64.7	64.7	64.7	45	42.9	3	9	248	0.00	29.547 
14:00	65.2	65.2	65.2	45	43.3	2	7	270	0.00	29.530 
14:05	65.5	65.5	65.5	44	43.0	4	10	248	0.00	29.530 
14:10	65.5	65.5	65.5	43	42.4	4	15	248	0.00	29.530 
14:15	65.6	65.6	65.6	43	42.5	4	15	248	0.00	29.523 
14:20	66.0	66.0	66.0	43	42.9	3	13	248	0.00	29.523 
14:25	66.0	66.0	66.0	43	42.9	4	13	248	0.00	29.523 
14:30	66.0	66.0	66.0	43	42.9	3	9	248	0.00	29.516 
14:35	66.1	66.1	66.1	42	42.3	4	15	248	0.00	29.516 
14:40	66.3	66.3	66.3	41	41.9	3	10	248	0.00	29.516 
14:45	66.4	66.4	66.4	40	41.3	4	12	248	0.00	29.508 
14:50	66.4	66.4	66.4	40	41.3	4	10	248	0.00	29.508 
14:55	66.4	66.4	66.4	39	40.7	4	11	248	0.00	29.508 
15:00	66.6	66.6	66.6	40	41.5	3	9	248	0.00	29.504 
15:05	66.9	66.9	66.9	38	40.5	4	10	248	0.00	29.504 
15:10	67.1	67.1	67.1	38	40.6	4	12	248	0.00	29.504 
15:15	66.9	66.9	66.9	39	41.1	5	13	248	0.00	29.492 
15:20	66.9	66.9	66.9	39	41.1	4	16	248	0.00	29.492 
15:25	66.9	66.9	66.9	40	41.8	4	11	248	0.00	29.492 
15:30	66.8	66.8	66.8	39	41.0	5	20	248	0.00	29.488 
15:35	66.4	66.4	66.4	40	41.3	5	12	248	0.00	29.488 
15:40	66.4	66.4	66.4	40	41.3	5	14	248	0.00	29.488 
15:45	66.1	66.1	66.1	40	41.1	4	12	248	0.00	29.480 
15:50	66.0	66.0	66.0	40	41.0	6	15	270	0.00	29.480 
15:55	65.8	65.8	65.8	40	40.8	5	16	248	0.00	29.480 
16:00	65.6	65.6	65.6	40	40.6	4	16	225	0.00	29.466 
16:05	65.6	65.6	65.6	39	40.0	4	12	248	0.00	29.466 
16:10	65.8	65.8	65.8	37	38.8	5	20	248	0.00	29.466 
16:15	65.6	65.6	65.6	37	38.6	5	16	248	0.00	29.473 
16:20	65.6	65.6	65.6	36	37.9	5	14	270	0.00	29.473 
16:25	65.6	65.6	65.6	36	37.9	5	12	248	0.00	29.473 
16:30	65.5	65.5	65.5	36	37.8	5	13	248	0.00	29.472 
16:35	65.3	65.3	65.3	36	37.7	5	21	248	0.00	29.472 
16:40	65.3	65.3	65.3	36	37.7	6	12	248	0.00	29.472 
16:45	65.3	65.3	65.3	36	37.7	3	14	248	0.00	29.481 
16:50	65.2	65.2	65.2	36	37.6	4	14	248	0.00	29.481 
16:55	65.0	65.0	65.0	37	38.1	4	15	248	0.00	29.481 
17:00	65.0	65.0	65.0	37	38.1	3	13	248	0.00	29.482 
17:05	65.0	65.0	65.0	37	38.1	4	10	248	0.00	29.482 
17:10	65.0	65.0	65.0	37	38.1	4	13	248	0.00	29.482 
17:15	64.8	64.8	64.8	37	37.9	4	9	248	0.00	29.488 
17:20	64.5	64.5	64.5	38	38.3	4	9	270	0.00	29.488 
17:25	64.3	64.3	64.3	38	38.1	4	10	248	0.00	29.488 
17:30	64.0	64.0	64.0	39	38.5	3	8	248	0.00	29.494 
17:35	63.7	63.7	63.7	39	38.3	4	12	248	0.00	29.494 
17:40	63.7	63.7	63.7	39	38.3	4	9	270	0.00	29.494 
17:45	63.5	63.5	63.5	40	38.7	2	9	225	0.00	29.495 
17:50	63.5	63.5	63.5	40	38.7	3	9	248	0.00	29.495 
17:55	63.4	63.4	63.4	40	38.7	3	15	248	0.00	29.495 
18:00	63.4	63.4	63.4	40	38.7	3	9	248	0.00	29.495 
18:05	63.2	63.2	63.2	40	38.5	3	7	248	0.00	29.495 
18:10	63.1	63.1	63.1	41	39.0	3	16	248	0.00	29.495 
18:15	63.1	63.1	63.1	41	39.0	3	10	248	0.00	29.491 
18:20	62.9	62.9	62.9	42	39.5	2	7	248	0.00	29.491 
18:25	62.9	62.9	62.9	41	38.8	4	12	248	0.00	29.491 
18:30	62.9	62.9	62.9	42	39.5	3	9	248	0.00	29.483 
18:35	62.7	62.7	62.7	42	39.3	3	10	248	0.00	29.483 
18:40	62.6	62.6	62.6	43	39.8	3	7	248	0.00	29.483 
18:45	62.4	62.4	62.4	43	39.6	3	10	248	0.00	29.483 
18:50	62.4	62.4	62.4	43	39.6	3	10	248	0.00	29.483 
18:55	62.4	62.4	62.4	43	39.6	3	9	248	0.00	29.483 
19:00	62.3	62.3	62.3	44	40.1	2	5	248	0.00	29.479 
19:05	62.1	62.1	62.1	45	40.5	3	7	248	0.00	29.479 
19:10	62.0	62.0	62.0	45	40.4	3	7	248	0.00	29.479 
19:15	61.8	61.8	61.8	46	40.8	3	9	248	0.00	29.478 
19:20	61.8	61.8	61.8	46	40.8	3	10	248	0.00	29.478 
19:25	61.8	61.8	61.8	46	40.8	3	9	270	0.00	29.478 
19:30	61.8	61.8	61.8	47	41.4	4	14	248	0.00	29.480 
19:35	61.6	61.6	61.6	47	41.2	3	11	248	0.00	29.480 
19:40	61.6	61.6	61.6	50	42.8	3	7	248	0.00	29.480 
19:45	61.2	61.2	61.2	50	42.4	3	14	248	0.00	29.484 
19:50	61.0	61.0	61.0	52	43.2	4	12	248	0.00	29.484 
19:55	60.1	60.1	60.1	57	44.8	3	7	248	0.00	29.484 
20:00	59.3	59.3	59.3	57	44.1	3	13	248	0.00	29.483 
20:05	59.5	59.5	59.5	58	44.7	4	13	248	0.00	29.483 
20:10	59.3	59.3	59.3	59	45.0	3	12	248	0.00	29.483 
20:15	58.9	58.9	58.9	60	45.0	3	7	248	0.00	29.483 
20:20	58.6	58.6	58.6	64	46.5	4	11	248	0.00	29.483 
20:25	57.8	57.8	57.8	65	46.1	2	9	248	0.00	29.483 
20:30	57.2	57.2	57.2	69	47.1	3	11	248	0.01	29.489 
20:35	56.6	56.6	56.6	71	47.3	2	7	248	0.00	29.489 
20:40	56.3	56.3	56.3	74	48.1	3	8	248	0.01	29.489 
20:45	55.6	55.6	55.6	77	48.5	2	7	248	0.00	29.492 
20:50	55.0	55.0	55.0	80	48.9	3	9	248	0.01	29.492 
20:55	54.5	54.5	54.5	82	49.1	3	7	248	0.01	29.492 
21:00	54.2	54.2	54.2	83	49.1	3	10	248	0.00	29.485 
21:05	54.2	54.2	54.2	83	49.1	3	11	248	0.00	29.485 
21:10	54.2	54.2	54.2	83	49.1	2	9	248	0.00	29.485 
21:15	54.2	54.2	54.2	83	49.1	2	6	225	0.00	29.477 
21:20	54.1	54.1	54.1	83	49.1	2	6	248	0.00	29.477 
21:25	54.1	54.1	54.1	82	48.7	2	5	248	0.00	29.477 
21:30	54.2	54.2	54.2	82	48.8	2	10	248	0.00	29.464 
21:35	54.2	54.2	54.2	82	48.8	3	9	248	0.00	29.464 
21:40	54.4	54.4	54.4	81	48.7	2	7	248	0.00	29.464 
21:45	54.4	54.4	54.4	81	48.7	2	6	248	0.00	29.461 
21:50	54.4	54.4	54.4	81	48.7	3	9	248	0.00	29.461 
21:55	54.5	54.5	54.5	80	48.5	2	7	248	0.00	29.461 
22:00	54.5	54.5	54.5	80	48.5	2	6	248	0.00	29.452 
22:05	54.7	54.7	54.7	80	48.7	2	6	248	0.00	29.452 
22:10	54.8	54.8	54.8	78	48.1	3	14	248	0.00	29.452 
22:15	55.0	55.0	55.0	78	48.3	3	9	248	0.00	29.447 
22:20	54.8	54.8	54.8	80	48.7	3	9	248	0.01	29.447 
22:25	54.4	54.4	54.4	83	49.3	2	7	248	0.02	29.447 
22:30	53.8	53.8	53.8	84	49.1	3	7	248	0.01	29.460 
22:35	53.5	53.5	53.5	86	49.4	3	6	248	0.02	29.460 
22:40	53.2	53.2	53.2	87	49.4	2	4	248	0.01	29.460 
22:45	52.9	52.9	52.9	88	49.4	2	6	248	0.01	29.467 
22:50	52.8	52.8	52.8	89	49.6	2	5	248	0.02	29.467 
22:55	52.5	52.5	52.5	89	49.4	2	5	248	0.01	29.467 
23:00	52.3	52.3	52.3	90	49.5	3	6	248	0.00	29.468 
23:05	52.2	52.2	52.2	90	49.4	2	5	248	0.00	29.468 
23:10	52.2	52.2	52.2	91	49.7	2	4	248	0.00	29.468 
23:15	52.2	52.2	52.2	91	49.7	2	7	248	0.00	29.472 
23:20	52.2	52.2	52.2	91	49.7	2	4	248	0.00	29.472 
23:25	52.2	52.2	52.2	91	49.7	3	9	248	0.00	29.472 
23:30	51.3	51.3	51.3	86	47.3	7	14	270	0.00	29.494 
23:35	49.9	47.1	49.9	82	44.6	7	17	292	0.00	29.494 
23:40	47.9	44.7	47.9	80	42.0	7	16	315	0.00	29.494 
23:45	46.5	44.8	46.5	81	41.0	4	9	292	0.00	29.534 
23:50	45.4	43.6	45.4	81	39.9	4	10	292	0.00	29.534 
23:55	44.5	42.5	44.5	81	39.0	4	11	292	0.00	29.534 

CoCoRaHS
IN-AL-39
A2 Web Hosting
Creative Commons License
GoDaddy
search engine by freefind advanced

loaded 2018-11-15 14:33:46 • last modified 2010-11-18 10:43:29
Privacy PolicyDisclaimer
• wx.awcolley.com is powered by PmWiki v.2002016 •
• all content (unless otherwise noted) © 2018 A W Colley